Time;durP1;ratioP1;P1;durP2;ratioP2;P2;SDS_P1;SDS_P2;PMS_P1;PMS_P2;Temp;Humidity;BMP_temperature;BMP_pressure;BME280_temperature;BME280_humidity;BME280_pressure;Samples;Min_cycle;Max_cycle;Signal;HPM_P1;HPM_P2
2021/10/29 00:00:55;;;;;;;14.77;8.45;;;;;;;1.77;100.00;98949.09;5055036;28;20404;-87
2021/10/29 00:03:22;;;;;;;17.33;8.10;;;;;;;1.75;100.00;98957.25;5055046;28;20107;-87
2021/10/29 00:05:51;;;;;;;17.90;9.23;;;;;;;1.73;100.00;98947.66;5054474;28;20132;-87
2021/10/29 00:08:18;;;;;;;16.60;9.23;;;;;;;1.77;100.00;98954.44;5055270;28;20052;-87
2021/10/29 00:10:45;;;;;;;16.48;8.63;;;;;;;1.68;100.00;98974.00;5051101;28;20053;-87
2021/10/29 00:13:12;;;;;;;21.95;9.15;;;;;;;1.53;100.00;98955.59;5045393;28;20052;-87
2021/10/29 00:15:39;;;;;;;15.07;9.13;;;;;;;1.64;100.00;98959.16;5054454;28;20056;-87
2021/10/29 00:18:06;;;;;;;20.50;9.88;;;;;;;1.56;100.00;98959.84;5054813;28;20053;-87
2021/10/29 00:20:34;;;;;;;15.48;8.57;;;;;;;1.62;100.00;98963.81;5054184;28;20045;-87
2021/10/29 00:23:03;;;;;;;20.23;8.95;;;;;;;1.53;100.00;98952.06;5054473;28;20049;-87
2021/10/29 00:25:30;;;;;;;19.85;9.77;;;;;;;1.42;100.00;98947.63;5054017;28;20049;-87
2021/10/29 00:27:57;;;;;;;20.30;10.55;;;;;;;1.45;100.00;98947.38;5046830;28;20111;-86
2021/10/29 00:30:24;;;;;;;22.73;10.30;;;;;;;1.63;100.00;98952.97;5054546;28;20057;-86
2021/10/29 00:32:50;;;;;;;25.33;11.52;;;;;;;1.70;100.00;98961.31;5054344;28;20057;-86
2021/10/29 00:35:18;;;;;;;26.45;11.20;;;;;;;1.60;100.00;98966.63;5054353;28;20049;-86
2021/10/29 00:37:45;;;;;;;35.15;11.57;;;;;;;1.55;100.00;98964.34;5050627;28;20053;-86
2021/10/29 00:40:14;;;;;;;47.10;12.82;;;;;;;1.50;100.00;98974.59;5054694;28;20048;-86
2021/10/29 00:42:44;;;;;;;43.72;12.32;;;;;;;1.54;100.00;98949.25;5053820;28;20049;-86
2021/10/29 00:45:11;;;;;;;38.53;12.30;;;;;;;1.60;100.00;98939.84;5043116;28;20048;-86
2021/10/29 00:47:38;;;;;;;38.97;11.85;;;;;;;1.52;100.00;98934.28;5050269;28;20044;-86
2021/10/29 00:50:06;;;;;;;32.65;11.77;;;;;;;1.48;100.00;98943.59;5048095;28;20095;-86
2021/10/29 00:52:33;;;;;;;57.00;12.65;;;;;;;1.55;100.00;98944.72;5054462;28;20045;-86
2021/10/29 00:55:01;;;;;;;60.42;12.13;;;;;;;1.39;100.00;98934.50;5053160;28;20106;-86
2021/10/29 00:57:29;;;;;;;46.67;12.73;;;;;;;1.44;100.00;98950.19;5054067;28;20103;-86
2021/10/29 00:59:56;;;;;;;59.50;12.90;;;;;;;1.45;100.00;98951.91;5053898;28;20098;-86
2021/10/29 01:02:23;;;;;;;34.63;11.80;;;;;;;1.57;100.00;98949.00;5053027;28;20491;-87
2021/10/29 01:04:50;;;;;;;24.38;11.13;;;;;;;1.43;100.00;98922.56;5052276;28;20048;-86
2021/10/29 01:07:17;;;;;;;42.17;12.02;;;;;;;1.51;100.00;98937.97;5053230;28;20051;-86
2021/10/29 01:09:44;;;;;;;25.20;11.38;;;;;;;1.38;100.00;98939.00;5054049;28;20048;-86
2021/10/29 01:12:11;;;;;;;19.40;11.07;;;;;;;1.41;100.00;98932.53;5053419;28;20059;-86
2021/10/29 01:14:39;;;;;;;22.45;11.07;;;;;;;1.38;100.00;98941.69;5053303;28;20049;-86
2021/10/29 01:17:07;;;;;;;23.50;11.63;;;;;;;1.42;100.00;98955.69;5053119;28;20052;-86
2021/10/29 01:19:35;;;;;;;22.77;11.05;;;;;;;1.37;100.00;98952.53;5052394;28;20052;-86
2021/10/29 01:22:04;;;;;;;24.00;10.40;;;;;;;1.47;100.00;98955.28;5045125;28;20041;-86
2021/10/29 01:24:31;;;;;;;26.30;12.20;;;;;;;1.36;100.00;98934.78;5053635;28;20045;-86
2021/10/29 01:26:58;;;;;;;21.65;10.85;;;;;;;1.41;100.00;98959.31;5053981;28;20511;-86
2021/10/29 01:29:25;;;;;;;32.10;12.88;;;;;;;1.32;100.00;98927.97;5053357;28;20048;-85
2021/10/29 01:31:52;;;;;;;26.73;11.32;;;;;;;1.24;100.00;98934.84;5052716;28;20052;-86
2021/10/29 01:34:19;;;;;;;25.40;12.20;;;;;;;1.22;100.00;98935.97;5052794;28;20308;-86
2021/10/29 01:36:46;;;;;;;24.60;10.75;;;;;;;1.25;100.00;98935.69;5052112;28;20051;-86
2021/10/29 01:39:18;;;;;;;22.73;10.25;;;;;;;1.29;100.00;98934.44;5046827;28;20044;-86
2021/10/29 01:41:45;;;;;;;27.52;11.25;;;;;;;1.03;100.00;98909.91;5053328;28;20045;-86
2021/10/29 01:44:12;;;;;;;29.52;10.40;;;;;;;1.13;100.00;98923.34;5053151;28;20055;-86
2021/10/29 01:46:40;;;;;;;24.02;10.52;;;;;;;1.18;100.00;98938.03;5052712;28;20462;-86
2021/10/29 01:49:07;;;;;;;26.75;9.90;;;;;;;1.16;100.00;98931.09;5053361;28;20052;-86
2021/10/29 01:51:34;;;;;;;32.53;11.32;;;;;;;1.23;100.00;98938.50;5049140;28;20057;-86
2021/10/29 01:54:01;;;;;;;94.50;14.35;;;;;;;1.39;100.00;98931.84;5043963;28;20045;-85
2021/10/29 01:56:31;;;;;;;114.43;14.25;;;;;;;1.27;100.00;98930.22;5034625;28;20084;-86
2021/10/29 01:58:58;;;;;;;;;;;;;;;1.36;100.00;98946.31;5033583;28;20058;-86
2021/10/29 02:01:25;;;;;;;97.15;13.70;;;;;;;1.37;100.00;98926.59;5052693;28;19928;-86
2021/10/29 02:03:52;;;;;;;140.25;14.10;;;;;;;1.36;100.00;98922.22;5051388;28;20053;-85
2021/10/29 02:06:20;;;;;;;107.40;14.40;;;;;;;1.40;100.00;98934.38;5052736;28;20562;-85
2021/10/29 02:08:47;;;;;;;85.70;14.55;;;;;;;1.35;100.00;98939.25;5051776;28;20045;-87
2021/10/29 02:11:17;;;;;;;72.55;12.95;;;;;;;1.33;100.00;98935.88;5050639;28;20399;-86
2021/10/29 02:13:45;;;;;;;81.85;14.52;;;;;;;1.38;100.00;98928.28;5048199;28;20052;-86
2021/10/29 02:16:12;;;;;;;75.13;14.10;;;;;;;1.44;100.00;98923.41;5052265;28;20489;-86
2021/10/29 02:18:39;;;;;;;86.93;13.15;;;;;;;1.46;100.00;98929.47;5052109;28;20053;-84
2021/10/29 02:21:06;;;;;;;73.82;12.80;;;;;;;1.47;100.00;98904.38;5051681;28;20045;-85
2021/10/29 02:23:33;;;;;;;53.10;13.18;;;;;;;1.59;100.00;98925.56;5053030;28;20437;-86
2021/10/29 02:26:00;;;;;;;46.55;11.90;;;;;;;1.41;100.00;98908.44;5051261;28;20060;-86
2021/10/29 02:28:27;;;;;;;81.35;11.13;;;;;;;1.20;100.00;98906.59;5048314;28;20049;-86
2021/10/29 02:30:55;;;;;;;49.42;10.65;;;;;;;1.21;100.00;98902.97;5045673;28;20381;-87
2021/10/29 02:33:22;;;;;;;47.50;10.80;;;;;;;1.23;100.00;98908.19;5052239;28;20049;-85
2021/10/29 02:35:52;;;;;;;48.33;10.57;;;;;;;1.29;100.00;98917.53;5051846;28;20512;-86
2021/10/29 02:38:18;;;;;;;27.42;10.20;;;;;;;1.36;100.00;98935.63;5051960;28;20463;-86
2021/10/29 02:40:45;;;;;;;26.90;9.85;;;;;;;1.14;100.00;98917.00;5052466;28;20144;-86
2021/10/29 02:43:12;;;;;;;27.98;10.80;;;;;;;1.18;100.00;98919.28;5051402;28;20041;-86
2021/10/29 02:45:42;;;;;;;36.30;10.23;;;;;;;1.18;100.00;98927.31;5051327;28;20045;-86
2021/10/29 02:48:11;;;;;;;32.92;9.52;;;;;;;0.92;100.00;98920.66;5056393;28;20048;-86
2021/10/29 02:50:38;;;;;;;23.58;10.00;;;;;;;0.92;100.00;98918.84;5056255;28;20067;-86
2021/10/29 02:53:07;;;;;;;17.88;9.75;;;;;;;0.90;100.00;98902.03;5056344;28;20488;-86
2021/10/29 02:55:34;;;;;;;21.00;9.83;;;;;;;1.03;100.00;98905.38;5058856;28;20044;-85
2021/10/29 02:58:01;;;;;;;31.42;11.52;;;;;;;1.14;100.00;98914.34;5069971;28;20052;-86
2021/10/29 03:00:28;;;;;;;43.78;10.25;;;;;;;1.04;100.00;98903.56;5068412;28;20045;-86
2021/10/29 03:02:55;;;;;;;39.53;11.80;;;;;;;0.86;100.00;98901.47;5055257;28;20113;-86
2021/10/29 03:05:24;;;;;;;23.83;10.52;;;;;;;1.02;100.00;98929.59;5065123;28;20052;-86
2021/10/29 03:07:51;;;;;;;31.05;11.13;;;;;;;1.10;100.00;98918.25;5062018;28;20561;-86
2021/10/29 03:10:18;;;;;;;34.78;10.70;;;;;;;1.02;100.00;98919.78;5057208;28;20400;-87
2021/10/29 03:12:45;;;;;;;27.92;11.32;;;;;;;1.04;100.00;98907.09;5057139;28;20136;-86
2021/10/29 03:15:13;;;;;;;32.10;11.85;;;;;;;0.99;100.00;98908.44;5056524;28;20044;-86
2021/10/29 03:17:45;;;;;;;24.75;10.98;;;;;;;1.04;100.00;98923.16;5055868;28;20133;-86
2021/10/29 03:20:12;;;;;;;30.85;11.10;;;;;;;0.95;100.00;98902.53;5048152;28;20081;-87
2021/10/29 03:22:41;;;;;;;26.88;10.68;;;;;;;1.09;100.00;98913.88;5053804;28;20049;-86
2021/10/29 03:25:09;;;;;;;18.98;9.27;;;;;;;1.13;100.00;98931.38;5056252;28;20064;-87
2021/10/29 03:27:36;;;;;;;41.72;11.25;;;;;;;0.93;100.00;98914.31;5052925;28;20057;-86
2021/10/29 03:30:05;;;;;;;30.35;10.43;;;;;;;1.03;100.00;98905.38;5036309;28;20432;-86
2021/10/29 03:32:32;;;;;;;25.08;12.13;;;;;;;1.13;100.00;98929.56;5052050;28;20045;-87
2021/10/29 03:34:59;;;;;;;20.95;11.23;;;;;;;1.14;100.00;98911.66;5055727;28;20118;-87
2021/10/29 03:40:32;;;;;;;24.95;10.02;;;;;;;0.87;100.00;98899.63;5151246;27;20374;-88
2021/10/29 03:43:05;;;;;;;41.50;10.05;;;;;;;0.79;100.00;98905.63;5152087;27;20054;-88
2021/10/29 03:45:36;;;;;;;61.47;10.63;;;;;;;0.75;100.00;98908.69;5151686;27;20050;-88
2021/10/29 03:48:04;;;;;;;26.00;9.90;;;;;;;0.72;100.00;98915.16;5152262;27;20061;-88
2021/10/29 03:50:34;;;;;;;23.90;9.48;;;;;;;0.69;100.00;98894.00;5146146;27;20047;-88
2021/10/29 03:53:05;;;;;;;22.90;9.55;;;;;;;0.53;100.00;98895.28;5152063;27;20046;-88
2021/10/29 03:55:37;;;;;;;15.57;8.75;;;;;;;0.67;100.00;98912.84;5151080;27;20047;-88
2021/10/29 03:58:05;;;;;;;17.70;10.15;;;;;;;0.70;100.00;98895.72;5151843;27;20553;-88
2021/10/29 04:00:32;;;;;;;16.08;8.98;;;;;;;0.69;100.00;98886.84;5151659;27;20047;-87
2021/10/29 04:03:05;;;;;;;17.05;8.55;;;;;;;0.75;100.00;98889.97;5151404;27;20047;-87
2021/10/29 04:05:34;;;;;;;15.65;8.48;;;;;;;0.76;100.00;98891.66;5150402;27;20077;-86
2021/10/29 04:08:01;;;;;;;22.42;9.10;;;;;;;0.55;100.00;98865.72;5141813;27;20047;-87
2021/10/29 04:10:30;;;;;;;24.63;10.07;;;;;;;0.58;100.00;98875.34;5151211;27;20054;-87
2021/10/29 04:13:00;;;;;;;23.58;9.85;;;;;;;0.66;100.00;98892.44;5151134;27;20070;-87
2021/10/29 04:15:28;;;;;;;20.42;9.75;;;;;;;0.67;100.00;98882.59;5150900;27;20128;-87
2021/10/29 04:17:56;;;;;;;34.67;11.15;;;;;;;0.69;100.00;98884.16;5151277;27;20051;-86
2021/10/29 04:20:23;;;;;;;32.05;10.98;;;;;;;0.65;100.00;98882.72;5135519;27;20043;-87
2021/10/29 04:22:52;;;;;;;40.78;9.68;;;;;;;0.63;100.00;98892.72;5151293;27;20046;-87
2021/10/29 04:25:19;;;;;;;24.23;10.77;;;;;;;0.72;100.00;98908.97;5145103;27;20046;-86
2021/10/29 04:27:54;;;;;;;18.15;8.95;;;;;;;0.81;100.00;98908.19;5151067;27;20039;-86
2021/10/29 04:30:24;;;;;;;27.17;10.50;;;;;;;0.71;100.00;98910.78;5145959;27;20074;-87
2021/10/29 04:32:51;;;;;;;37.63;10.82;;;;;;;0.79;100.00;98916.34;5151299;27;20057;-87
2021/10/29 04:35:18;;;;;;;32.90;9.93;;;;;;;0.89;100.00;98900.38;5133095;27;20050;-87
2021/10/29 04:37:45;;;;;;;35.22;11.25;;;;;;;0.76;100.00;98895.19;5142577;27;20490;-87
2021/10/29 04:40:13;;;;;;;24.42;10.02;;;;;;;0.92;100.00;98912.63;5149966;27;20086;-87
2021/10/29 04:42:41;;;;;;;21.10;9.60;;;;;;;1.01;100.00;98915.38;5145299;27;20401;-87
2021/10/29 04:45:09;;;;;;;25.08;11.25;;;;;;;1.03;100.00;98908.06;5149475;27;20193;-86
2021/10/29 04:47:37;;;;;;;30.33;10.95;;;;;;;0.92;100.00;98891.22;5150299;27;20139;-87
2021/10/29 04:50:06;;;;;;;28.60;10.60;;;;;;;0.88;100.00;98883.44;5145289;27;20054;-87
2021/10/29 04:52:33;;;;;;;18.50;11.00;;;;;;;0.72;100.00;98871.50;5136611;27;20051;-87
2021/10/29 04:55:00;;;;;;;43.78;10.40;;;;;;;0.72;100.00;98877.69;5136509;27;20428;-87
2021/10/29 04:57:26;;;;;;;30.45;10.18;;;;;;;0.83;100.00;98882.16;5134965;27;20089;-87
2021/10/29 04:59:54;;;;;;;37.47;10.98;;;;;;;0.72;100.00;98855.44;5135406;27;20039;-87
2021/10/29 05:02:21;;;;;;;26.33;12.00;;;;;;;0.87;100.00;98878.22;5136502;27;20498;-87
2021/10/29 05:04:49;;;;;;;29.67;10.73;;;;;;;0.77;100.00;98859.44;5135319;27;20070;-87
2021/10/29 05:07:16;;;;;;;80.15;19.85;;;;;;;0.86;100.00;98871.19;5136736;27;20051;-87
2021/10/29 05:09:43;;;;;;;69.90;12.35;;;;;;;0.98;100.00;98871.94;5136283;27;20489;-87
2021/10/29 05:12:10;;;;;;;87.55;11.95;;;;;;;0.96;100.00;98876.59;5136469;27;20452;-87
2021/10/29 05:14:36;;;;;;;62.50;10.68;;;;;;;0.91;100.00;98870.78;5130966;27;20042;-87
2021/10/29 05:17:06;;;;;;;73.45;12.40;;;;;;;0.81;100.00;98871.59;5135371;27;20042;-87
2021/10/29 05:19:33;;;;;;;57.65;11.18;;;;;;;0.86;100.00;98864.00;5136180;27;20050;-87
2021/10/29 05:22:02;;;;;;;51.65;11.77;;;;;;;0.96;100.00;98885.47;5136225;27;20127;-87
2021/10/29 05:24:28;;;;;;;79.82;12.15;;;;;;;0.97;100.00;98868.44;5135485;27;20043;-87
2021/10/29 05:27:01;;;;;;;55.03;12.38;;;;;;;0.90;100.00;98880.63;5136164;27;20507;-87
2021/10/29 05:29:28;;;;;;;70.93;11.57;;;;;;;0.83;100.00;98871.44;5134957;27;20556;-87
2021/10/29 05:32:02;;;;;;;56.20;13.82;;;;;;;0.88;100.00;98870.06;5129570;27;20482;-87
2021/10/29 05:34:29;;;;;;;36.03;10.65;;;;;;;0.87;100.00;98854.13;5128021;27;20043;-87
2021/10/29 05:36:56;;;;;;;66.28;11.32;;;;;;;1.03;100.00;98870.56;5135589;27;20103;-87
2021/10/29 05:39:25;;;;;;;42.58;13.52;;;;;;;0.93;100.00;98850.94;5132011;27;20051;-87
2021/10/29 05:41:52;;;;;;;61.63;13.77;;;;;;;1.06;100.00;98873.00;5134868;27;20050;-86
2021/10/29 05:44:20;;;;;;;110.28;14.10;;;;;;;0.92;100.00;98861.75;5135560;27;20047;-87
2021/10/29 05:46:47;;;;;;;100.43;13.60;;;;;;;1.05;100.00;98881.16;5129339;27;20097;-87
2021/10/29 05:49:16;;;;;;;64.25;12.20;;;;;;;0.97;100.00;98865.75;5116905;27;20050;-87
2021/10/29 05:51:46;;;;;;;59.00;11.10;;;;;;;0.93;100.00;98874.19;5135053;27;20048;-87
2021/10/29 05:54:34;;;;;;;62.35;10.18;;;;;;;0.95;100.00;98875.75;5135433;27;20505;-87
2021/10/29 05:57:06;;;;;;;33.88;10.73;;;;;;;1.04;100.00;98874.13;5134272;27;20501;-87
2021/10/29 05:59:37;;;;;;;44.88;9.70;;;;;;;1.05;100.00;98855.25;5135387;27;20092;-86
2021/10/29 06:02:10;;;;;;;40.75;9.75;;;;;;;0.98;100.00;98866.59;5126676;27;20048;-87
2021/10/29 06:04:37;;;;;;;35.55;10.30;;;;;;;0.86;100.00;98855.13;5114412;27;20066;-87
2021/10/29 06:07:04;;;;;;;44.33;10.35;;;;;;;0.85;100.00;98861.44;5120642;27;20047;-87
2021/10/29 06:09:31;;;;;;;38.45;10.27;;;;;;;0.79;100.00;98844.09;5134823;27;20406;-86
2021/10/29 06:12:01;;;;;;;33.88;9.48;;;;;;;0.92;100.00;98862.63;5135490;27;20058;-87
2021/10/29 06:14:29;;;;;;;33.28;9.63;;;;;;;0.84;100.00;98857.94;5134615;27;20042;-87
2021/10/29 06:16:59;;;;;;;40.95;9.85;;;;;;;0.94;100.00;98879.41;5132073;27;20051;-87
2021/10/29 06:19:27;;;;;;;45.75;11.05;;;;;;;1.00;100.00;98878.88;5124250;27;20074;-86
2021/10/29 06:21:58;;;;;;;40.13;9.85;;;;;;;0.99;100.00;98873.66;5130540;27;20043;-87
2021/10/29 06:24:26;;;;;;;40.22;11.30;;;;;;;1.16;100.00;98875.75;5134620;27;20071;-87
2021/10/29 06:26:58;;;;;;;51.95;18.13;;;;;;;1.19;100.00;98867.44;5134836;27;20051;-87
2021/10/29 06:29:25;;;;;;;54.35;16.10;;;;;;;1.42;100.00;98881.50;5134657;27;20047;-87
2021/10/29 06:31:53;;;;;;;52.85;14.50;;;;;;;1.59;100.00;98874.66;5134196;27;20055;-87
2021/10/29 06:34:20;;;;;;;46.60;14.50;;;;;;;1.65;100.00;98872.44;5126621;27;20156;-85
2021/10/29 06:36:48;;;;;;;56.88;16.08;;;;;;;1.71;100.00;98864.69;5133944;27;20116;-85
2021/10/29 06:39:15;;;;;;;73.30;13.50;;;;;;;1.75;100.00;98882.22;5133761;27;20047;-84
2021/10/29 06:41:42;;;;;;;65.28;14.07;;;;;;;1.77;100.00;98877.56;5134049;27;20092;-84
2021/10/29 06:44:22;;;;;;;57.08;13.50;;;;;;;1.83;100.00;98883.38;5132736;27;20112;-85
2021/10/29 06:47:10;;;;;;;41.88;13.52;;;;;;;2.00;100.00;98871.97;5133007;27;20121;-85
2021/10/29 06:59:11;;;;;;;59.97;14.57;;;;;;;1.99;100.00;98882.84;5133016;27;20054;-85
2021/10/29 07:00:54;;;;;;;56.25;14.40;;;;;;;2.12;100.00;98878.06;5129078;27;20077;-85
2021/10/29 07:41:51;;;;;;;52.60;16.13;;;;;;;3.41;100.00;98886.78;5133276;27;20054;-85
2021/10/29 07:44:20;;;;;;;52.17;16.27;;;;;;;3.40;100.00;98881.56;5121851;28;20078;-85
2021/10/29 07:46:47;;;;;;;57.70;16.73;;;;;;;3.29;100.00;98872.66;5125439;27;20074;-85
2021/10/29 07:49:15;;;;;;;60.03;14.90;;;;;;;3.36;100.00;98868.41;5116646;27;20051;-86
2021/10/29 07:51:42;;;;;;;44.83;14.95;;;;;;;3.40;100.00;98873.50;5126230;27;20521;-85
2021/10/29 07:54:11;;;;;;;84.90;15.18;;;;;;;3.49;100.00;98889.59;5129818;27;20468;-85
2021/10/29 07:56:38;;;;;;;59.83;14.52;;;;;;;3.45;100.00;98885.50;5133348;27;20096;-86
2021/10/29 07:59:06;;;;;;;55.22;16.40;;;;;;;3.69;100.00;98885.00;5127496;27;20047;-86
2021/10/29 08:01:33;;;;;;;93.43;15.60;;;;;;;3.69;100.00;98868.03;5130280;27;20054;-87
2021/10/29 08:04:25;;;;;;;67.88;15.18;;;;;;;3.68;100.00;98877.91;5132908;28;20044;-80
2021/10/29 08:06:52;;;;;;;36.47;13.30;;;;;;;3.81;100.00;98857.91;5128222;27;20043;-81
2021/10/29 08:12:59;;;;;;;40.40;12.77;;;;;;;3.83;100.00;98872.91;5124681;28;20100;-80
2021/10/29 08:15:26;;;;;;;55.13;12.25;;;;;;;3.90;100.00;98879.38;5132078;27;20047;-80
2021/10/29 08:17:53;;;;;;;29.08;13.40;;;;;;;4.06;100.00;98888.63;5131972;27;20055;-80
2021/10/29 08:20:51;;;;;;;41.35;13.82;;;;;;;4.04;100.00;98875.34;5128570;27;20082;-81
2021/10/29 08:23:22;;;;;;;29.42;13.20;;;;;;;4.00;100.00;98867.72;5129791;27;20425;-80
2021/10/29 08:25:51;;;;;;;32.60;13.82;;;;;;;4.30;100.00;98884.53;5134091;27;20542;-80
2021/10/29 08:28:18;;;;;;;28.60;12.27;;;;;;;4.32;100.00;98875.31;5130641;27;20050;-80
2021/10/29 08:30:45;;;;;;;48.70;13.77;;;;;;;4.40;100.00;98877.25;5136380;27;20051;-80
2021/10/29 08:33:15;;;;;;;25.65;15.45;;;;;;;4.60;100.00;98872.56;5135357;27;20055;-80
2021/10/29 08:35:42;;;;;;;32.75;12.27;;;;;;;4.54;100.00;98876.69;5128469;27;20409;-80
2021/10/29 08:38:14;;;;;;;25.48;11.68;;;;;;;4.92;100.00;98895.41;5135693;27;20043;-81
2021/10/29 08:40:42;;;;;;;25.17;12.25;;;;;;;4.94;100.00;98863.78;5135260;27;20043;-81
2021/10/29 08:46:40;;;;;;;35.38;13.00;;;;;;;5.13;100.00;98870.81;5097791;27;20447;-81
2021/10/29 08:49:21;;;;;;;19.80;11.73;;;;;;;5.13;100.00;98857.34;5134822;27;20485;-81
2021/10/29 08:51:51;;;;;;;21.25;12.50;;;;;;;5.22;100.00;98847.47;5130602;27;20172;-81
2021/10/29 08:54:19;;;;;;;22.98;12.43;;;;;;;5.52;100.00;98846.13;5133703;27;20043;-81
2021/10/29 08:56:46;;;;;;;23.08;12.77;;;;;;;5.59;100.00;98863.34;5133947;27;20059;-81
2021/10/29 08:59:21;;;;;;;23.90;12.98;;;;;;;5.59;100.00;98860.66;5134548;27;20059;-81
2021/10/29 09:02:27;;;;;;;27.08;14.02;;;;;;;5.56;100.00;98869.06;5132167;27;20047;-80
2021/10/29 09:05:10;;;;;;;21.65;11.82;;;;;;;5.37;100.00;98864.72;5120745;27;20112;-81
2021/10/29 09:07:47;;;;;;;18.75;11.85;;;;;;;5.21;100.00;98865.50;5133261;27;20054;-81
2021/10/29 09:10:36;;;;;;;23.38;12.88;;;;;;;5.18;100.00;98836.16;5130779;27;20051;-80
2021/10/29 09:16:35;;;;;;;17.92;11.57;;;;;;;5.67;100.00;98838.28;5135119;27;20090;-80
2021/10/29 09:33:12;;;;;;;17.35;11.48;;;;;;;6.52;100.00;98805.81;5135450;27;20072;-82
2021/10/29 09:35:41;;;;;;;21.05;12.98;;;;;;;6.60;100.00;98798.75;5128560;27;20043;-82
2021/10/29 09:38:11;;;;;;;17.35;11.60;;;;;;;6.61;100.00;98801.28;5132401;27;20058;-82
2021/10/29 09:40:39;;;;;;;;;;;;;;;6.71;100.00;98815.47;5132279;27;20051;-82
2021/10/29 09:43:12;;;;;;;17.42;10.88;;;;;;;6.76;100.00;98806.84;5128252;27;19926;-82
2021/10/29 09:45:46;;;;;;;15.77;10.43;;;;;;;6.94;100.00;98812.06;5128600;27;20047;-82
2021/10/29 09:48:20;;;;;;;15.80;10.00;;;;;;;7.05;100.00;98789.25;5135061;27;20138;-82
2021/10/29 09:50:50;;;;;;;15.45;10.25;;;;;;;7.23;100.00;98803.41;5133883;27;20050;-82
2021/10/29 09:53:44;;;;;;;16.95;10.63;;;;;;;7.40;100.00;98806.91;5133976;27;20062;-82
2021/10/29 09:56:14;;;;;;;19.65;11.13;;;;;;;7.42;100.00;98801.31;5134304;27;20062;-82
2021/10/29 09:58:42;;;;;;;14.88;9.57;;;;;;;7.59;100.00;98802.97;5130036;27;20049;-81
2021/10/29 10:01:12;;;;;;;16.23;10.35;;;;;;;7.68;100.00;98787.53;5133886;27;20054;-81
2021/10/29 10:03:40;;;;;;;18.08;11.15;;;;;;;7.87;100.00;98801.66;5134854;27;20513;-82
2021/10/29 10:06:07;;;;;;;21.25;11.23;;;;;;;7.74;100.00;98789.53;5132567;27;20039;-82
2021/10/29 10:08:47;;;;;;;20.73;10.90;;;;;;;8.04;100.00;98791.59;5118776;27;20062;-82
2021/10/29 10:11:15;;;;;;;18.30;10.82;;;;;;;8.07;100.00;98797.50;5114223;28;20547;-82
2021/10/29 10:13:43;;;;;;;20.08;12.48;;;;;;;8.11;100.00;98796.13;5113894;28;20111;-82
2021/10/29 10:16:11;;;;;;;16.10;11.25;;;;;;;8.22;100.00;98807.56;5114784;27;20043;-82
2021/10/29 10:18:39;;;;;;;20.25;10.60;;;;;;;8.21;100.00;98795.06;5134228;27;20096;-82
2021/10/29 10:21:19;;;;;;;14.70;10.07;;;;;;;8.26;100.00;98800.78;5134265;27;20044;-82
2021/10/29 10:23:50;;;;;;;23.75;11.60;;;;;;;8.24;100.00;98786.59;5132382;27;20073;-82
2021/10/29 10:26:38;;;;;;;17.95;10.73;;;;;;;8.41;100.00;98793.56;5134397;27;20447;-82
2021/10/29 10:43:34;;;;;;;20.30;10.93;;;;;;;9.01;100.00;98774.81;5132290;27;20131;-82
2021/10/29 10:46:08;;;;;;;17.30;10.68;;;;;;;9.09;100.00;98774.72;5133657;27;20138;-82
2021/10/29 10:48:40;;;;;;;15.25;9.50;;;;;;;9.14;99.38;98774.19;5133347;27;20054;-82
2021/10/29 10:51:50;;;;;;;16.98;10.52;;;;;;;9.24;98.48;98773.91;5133834;27;20049;-82
2021/10/29 10:54:30;;;;;;;;;;;;;;;9.30;98.46;98765.84;5115703;27;20573;-82
2021/10/29 10:57:14;;;;;;;;;;;;;;;9.43;98.86;98761.66;5112795;28;19926;-82
2021/10/29 11:00:00;;;;;;;17.67;10.73;;;;;;;9.45;99.04;98751.44;5133744;27;19972;-82
2021/10/29 11:11:05;;;;;;;18.42;12.95;;;;;;;9.57;97.50;98726.38;5118620;27;20439;-82
2021/10/29 11:16:37;;;;;;;18.73;11.05;;;;;;;9.67;97.29;98726.06;5130350;27;20908;-81
2021/10/29 11:19:11;;;;;;;16.75;11.07;;;;;;;9.80;96.00;98735.41;5130311;27;20058;-82
2021/10/29 11:21:47;;;;;;;17.73;11.27;;;;;;;10.03;94.88;98735.25;5129908;27;20047;-82
2021/10/29 11:24:15;;;;;;;17.10;11.10;;;;;;;10.09;93.82;98729.91;5118638;27;20067;-82
2021/10/29 11:26:47;;;;;;;15.68;9.93;;;;;;;10.22;93.86;98726.50;5125531;28;20047;-82
2021/10/29 11:29:14;;;;;;;18.85;9.98;;;;;;;10.27;94.08;98724.03;5130526;27;20058;-82
2021/10/29 11:31:45;;;;;;;17.38;11.55;;;;;;;10.38;93.54;98719.13;5127955;27;20050;-82
2021/10/29 11:34:13;;;;;;;;;;;;;;;10.48;92.70;98716.94;5130780;27;20050;-81
2021/10/29 11:36:42;;;;;;;20.42;9.88;;;;;;;10.54;92.25;98710.72;5129418;27;19920;-82
2021/10/29 11:39:13;;;;;;;17.00;9.70;;;;;;;10.52;91.50;98711.94;5114549;27;20056;-82
2021/10/29 11:41:43;;;;;;;16.08;9.70;;;;;;;10.48;91.63;98678.91;5109678;27;20572;-82
2021/10/29 11:44:12;;;;;;;17.15;9.75;;;;;;;10.69;90.64;98682.59;5109691;28;20083;-82
2021/10/29 11:46:42;;;;;;;15.95;9.73;;;;;;;10.87;89.10;98685.69;5112190;27;20040;-82
2021/10/29 11:49:12;;;;;;;17.45;9.18;;;;;;;10.80;88.78;98665.75;5128231;27;20039;-82
2021/10/29 11:51:40;;;;;;;14.80;8.98;;;;;;;11.00;87.58;98684.06;5129994;27;20066;-82
2021/10/29 11:54:17;;;;;;;11.65;7.65;;;;;;;11.14;87.99;98685.81;5129960;27;20061;-82
2021/10/29 11:56:49;;;;;;;13.20;8.98;;;;;;;10.94;88.29;98662.09;5109532;28;20048;-82
2021/10/29 12:07:31;;;;;;;13.85;9.00;;;;;;;11.30;87.56;98652.00;5109343;28;20132;-81
2021/10/29 12:10:06;;;;;;;14.57;8.48;;;;;;;11.43;87.34;98637.63;5120373;27;20406;-81
2021/10/29 12:12:35;;;;;;;14.57;9.13;;;;;;;11.43;87.45;98632.19;5129047;27;20134;-81
2021/10/29 12:15:08;;;;;;;14.77;9.73;;;;;;;11.58;87.09;98638.31;5129082;27;20051;-81
2021/10/29 12:17:45;;;;;;;13.80;9.80;;;;;;;11.64;86.83;98621.16;5129496;27;20079;-81
2021/10/29 12:20:21;;;;;;;16.13;9.48;;;;;;;11.82;86.93;98619.75;5127815;27;20051;-81
2021/10/29 12:22:50;;;;;;;13.35;8.98;;;;;;;11.94;87.38;98622.69;5129582;27;20123;-81
2021/10/29 12:25:28;;;;;;;16.17;9.98;;;;;;;11.89;87.38;98606.13;5128556;27;20544;-81
2021/10/29 12:27:59;;;;;;;14.20;9.38;;;;;;;11.96;87.82;98618.72;5101749;28;20048;-81
2021/10/29 12:30:32;;;;;;;12.60;9.27;;;;;;;12.18;87.27;98604.94;5095221;28;20048;-81
2021/10/29 12:51:53;;;;;;;16.17;8.63;;;;;;;12.88;85.48;98601.72;5115260;28;20136;-81
2021/10/29 12:53:28;;;;;;;18.10;8.90;;;;;;;12.90;82.60;98602.31;5112763;28;20063;-80
2021/10/29 13:01:36;;;;;;;13.40;8.75;;;;;;;12.93;83.63;98578.19;5093837;28;20249;-80
2021/10/29 13:04:06;;;;;;;18.13;9.30;;;;;;;13.04;82.38;98587.59;5094743;28;20043;-81
2021/10/29 13:06:58;;;;;;;12.32;7.90;;;;;;;13.21;83.44;98581.66;5094061;28;20071;-81
2021/10/29 13:13:12;;;;;;;20.05;7.97;;;;;;;13.34;78.46;98573.47;5105007;28;20059;-81
2021/10/29 13:36:12;;;;;;;14.32;8.43;;;;;;;13.70;78.62;98535.63;5114040;28;20054;-81
2021/10/29 14:04:10;;;;;;;12.07;7.40;;;;;;;14.11;78.88;98510.53;5070396;28;20162;-81
2021/10/29 14:29:04;;;;;;;9.23;6.63;;;;;;;14.39;78.22;98522.91;5111947;28;20131;-81
2021/10/29 14:31:36;;;;;;;12.68;6.78;;;;;;;14.34;78.91;98518.06;5109508;28;20402;-81
2021/10/29 14:34:09;;;;;;;10.73;7.63;;;;;;;14.32;78.27;98513.91;5113312;27;20048;-81
2021/10/29 14:36:45;;;;;;;10.55;6.30;;;;;;;14.15;78.25;98509.03;5104900;27;20497;-81
2021/10/29 14:39:14;;;;;;;8.65;6.38;;;;;;;14.21;79.76;98506.44;5092430;28;20052;-81
2021/10/29 14:41:44;;;;;;;9.32;6.57;;;;;;;14.33;79.07;98521.03;5092338;28;20102;-82
2021/10/29 14:44:16;;;;;;;;;;;;;;;14.14;78.79;98518.28;5098330;28;20051;-82
2021/10/29 14:46:58;;;;;;;9.75;5.90;;;;;;;14.02;79.13;98530.16;5108917;28;19984;-82
2021/10/29 14:49:36;;;;;;;9.02;6.18;;;;;;;13.97;79.81;98534.41;5093896;28;20056;-82
2021/10/29 14:52:30;;;;;;;9.57;6.50;;;;;;;13.83;80.06;98537.44;5094784;28;20501;-82
2021/10/29 15:01:00;;;;;;;11.88;6.28;;;;;;;13.43;82.86;98505.78;5092634;28;20047;-81
2021/10/29 15:03:58;;;;;;;9.23;6.18;;;;;;;13.59;82.70;98523.53;5099970;28;20129;-82
2021/10/29 15:06:39;;;;;;;9.75;6.40;;;;;;;13.40;83.24;98508.97;5105093;28;20483;-82